Aviation Digital Data Service (ADDS)

Output produced by METARs form (2028 UTC 08 February 2023)
found at http://aviationweather.gov/metar/data/
 
METAR text: KEVB 081947Z 07009KT 10SM SCT048 24/15 A3024
Conditions at: KEVB (NEW SMYRNA BEACH, FL, US) observed 1947 UTC 08 February 2023
Temperature: 24.0°C (75°F)
Dewpoint: 15.0°C (59°F) [RH = 57%]
Pressure (altimeter): 30.24 inches Hg (1024.1 mb)
Winds: from the ENE (70 degrees) at 10 MPH (9 knots; 4.6 m/s)
Visibility: 10 or more miles (16+ km)
Ceiling: at least 12,000 feet AGL
Clouds: scattered clouds at 4800 feet AGL
Weather: no significant weather observed at this time

METAR text: KEVB 081847Z 07009KT 10SM SCT048 24/15 A3026
Conditions at: KEVB (NEW SMYRNA BEACH, FL, US) observed 1847 UTC 08 February 2023
Temperature: 24.0°C (75°F)
Dewpoint: 15.0°C (59°F) [RH = 57%]
Pressure (altimeter): 30.26 inches Hg (1024.8 mb)
Winds: from the ENE (70 degrees) at 10 MPH (9 knots; 4.6 m/s)
Visibility: 10 or more miles (16+ km)
Ceiling: at least 12,000 feet AGL
Clouds: scattered clouds at 4800 feet AGL
Weather: no significant weather observed at this time